• Join FlightAware (Why Join?)
  • Login
  • US Flag 
02:32AM EDT


 

Airport Tracker/Info


-or-


 

Live Flight TrackerFlight Track Log ✈ N4446X ✈ 15-Sep-2013 ✈ 08C - KRMY

Flight Track Log - Related Links

Times and Time Zones

All times are in EDT time to prevent confusion due to time zone crossing. See the N4446X flight status page for this flight to view local times or setup timezone preferences in your user account.

Time Position Orientation Groundspeed Altitude Reporting Facility
EDT Latitude Longitude Course Direction KTS MPH feet Rate Location/Type
05:17PM 42.8550 -85.7850 140° Southeast 112 129 3,300  Level Chicago Center
05:18PM 42.8264 -85.7603 148° Southeast 126 145 4,000 720 Climbing Chicago Center
05:19PM 42.8033 -85.7192 127° Southeast 134 154 4,800 420 Climbing Chicago Center
05:20PM 42.7742 -85.6767 133° Southeast 148 170 4,900  Climbing Chicago Center
05:21PM 42.7564 -85.5745 137° Southeast  Level FlightAware Approximate
05:21PM 42.7336 -85.6250 137° Southeast 163 188 4,900  Level Chicago Center
05:22PM 42.7259 -85.5368 140° Southeast  Level Estimated
05:22PM 42.7031 -85.5767 131° Southeast 168 193 4,900  Level Chicago Center
05:23PM 42.6711 -85.5325 135° Southeast 165 190 4,900  Level Chicago Center
05:24PM 42.6389 -85.4881 135° Southeast 165 190 4,900 -240 Level Chicago Center
05:25PM 42.6061 -85.4417 134° Southeast 168 193 4,400 -480 Descending Chicago Center
05:26PM 42.5656 -85.3908 137° Southeast 167 192 4,000 -300 Descending Chicago Center
05:27PM 42.5361 -85.3469 132° Southeast 160 184 3,900 -60 Descending Chicago Center
05:28PM 42.5050 -85.3058 136° Southeast 156 180 3,900  Level Chicago Center
05:29PM 42.4789 -85.2614 129° Southeast 152 175 3,900  Level Chicago Center
05:30PM 42.4464 -85.2217 138° Southeast 156 180 3,900  Level Chicago Center
05:31PM 42.4189 -85.1814 133° Southeast 150 173 3,900 -300 Level Chicago Center
05:32PM 42.3825 -85.1328 135° Southeast 153 176 3,400 -600 Descending Chicago Center
05:33PM 42.3506 -85.0892 135° Southeast 160 184 2,700 -480 Descending Chicago Center
05:34PM 42.3233 -85.0514 134° Southeast 157 181 2,400 -240 Descending Chicago Center
05:35PM 42.2969 -85.0139 134° Southeast 149 171 2,300 -180 Descending Chicago Center
05:36PM 42.2661 -84.9761 138° Southeast 144 166 2,100 -240 Descending Chicago Center